Time;durP1;ratioP1;P1;durP2;ratioP2;P2;SDS_P1;SDS_P2;PMS_P1;PMS_P2;Temp;Humidity;BMP_temperature;BMP_pressure;BME280_temperature;BME280_humidity;BME280_pressure;Samples;Min_cycle;Max_cycle;Signal;HPM_P1;HPM_P2
2021/12/09 00:01:28;;;;;;;15.27;11.00;;;1.90;99.90;;;;;;4992079;28;20052;-47
2021/12/09 00:03:57;;;;;;;12.85;10.27;;;1.90;99.90;;;;;;4981906;28;20042;-45
2021/12/09 00:06:27;;;;;;;17.33;10.07;;;1.90;99.90;;;;;;5001981;28;20073;-62
2021/12/09 00:08:56;;;;;;;16.60;11.00;;;2.00;99.90;;;;;;4991609;28;20045;-47
2021/12/09 00:11:23;;;;;;;15.60;10.30;;;2.00;99.90;;;;;;4970406;28;20046;-61
2021/12/09 00:13:49;;;;;;;18.88;11.07;;;2.00;99.90;;;;;;4992289;28;20049;-62
2021/12/09 00:16:17;;;;;;;15.80;10.95;;;1.90;99.90;;;;;;4959495;28;20061;-47
2021/12/09 00:18:43;;;;;;;16.73;10.52;;;1.90;99.90;;;;;;5010221;28;20068;-45
2021/12/09 00:21:10;;;;;;;21.33;11.60;;;1.90;99.90;;;;;;5005191;28;20050;-45
2021/12/09 00:23:36;;;;;;;18.05;11.57;;;1.90;99.90;;;;;;4992494;28;20048;-51
2021/12/09 00:26:03;;;;;;;13.98;11.23;;;1.90;99.90;;;;;;4988138;28;20600;-61
2021/12/09 00:28:29;;;;;;;18.33;11.18;;;1.80;99.90;;;;;;5002241;28;20053;-61
2021/12/09 00:30:55;;;;;;;19.35;11.57;;;1.80;99.90;;;;;;4992681;28;20056;-46
2021/12/09 00:33:21;;;;;;;15.75;10.50;;;1.70;99.90;;;;;;5002004;28;20475;-46
2021/12/09 00:35:55;;;;;;;21.83;10.45;;;1.60;99.90;;;;;;4983072;28;20049;-46
2021/12/09 00:38:33;;;;;;;14.85;10.85;;;1.60;99.90;;;;;;4992376;28;20052;-47
2021/12/09 00:41:03;;;;;;;14.40;11.30;;;1.50;99.90;;;;;;4992336;28;20169;-45
2021/12/09 00:43:29;;;;;;;13.98;11.10;;;1.50;99.90;;;;;;5009803;28;20061;-47
2021/12/09 00:45:57;;;;;;;13.88;11.93;;;1.50;99.90;;;;;;5010487;28;20125;-46
2021/12/09 00:48:25;;;;;;;16.23;10.63;;;1.40;99.90;;;;;;5010203;28;20050;-46
2021/12/09 00:50:53;;;;;;;14.05;10.57;;;1.40;99.90;;;;;;5008379;28;20124;-61
2021/12/09 00:53:20;;;;;;;17.17;11.25;;;1.40;99.90;;;;;;4998819;28;20038;-61
2021/12/09 00:55:47;;;;;;;18.65;11.55;;;1.40;99.90;;;;;;5010104;28;20100;-46
2021/12/09 00:58:14;;;;;;;17.88;12.02;;;1.30;99.90;;;;;;4992400;28;20050;-46
2021/12/09 01:00:40;;;;;;;14.60;11.80;;;1.30;99.90;;;;;;4972255;28;20137;-47
2021/12/09 01:03:06;;;;;;;17.30;11.98;;;1.30;99.90;;;;;;4989461;28;20092;-46
2021/12/09 01:05:32;;;;;;;18.75;12.55;;;1.30;99.90;;;;;;4957001;28;20058;-61
2021/12/09 01:07:58;;;;;;;19.77;12.02;;;1.20;99.90;;;;;;4991278;28;20038;-61
2021/12/09 01:10:25;;;;;;;17.88;12.80;;;1.20;99.90;;;;;;4993035;28;20085;-61
2021/12/09 01:12:52;;;;;;;20.10;12.35;;;1.20;99.90;;;;;;4998671;28;20049;-62
2021/12/09 01:15:19;;;;;;;18.38;12.70;;;1.20;99.90;;;;;;5008788;28;20675;-61
2021/12/09 01:17:47;;;;;;;21.83;13.55;;;1.30;99.90;;;;;;5007534;28;20058;-62
2021/12/09 01:20:15;;;;;;;20.13;12.63;;;1.30;99.90;;;;;;4991175;28;20058;-61
2021/12/09 01:22:43;;;;;;;17.63;11.95;;;1.30;99.90;;;;;;5005324;28;20049;-61
2021/12/09 01:25:13;;;;;;;24.10;13.10;;;1.30;99.90;;;;;;4991605;28;20739;-48
2021/12/09 01:27:42;;;;;;;17.30;13.20;;;1.30;99.90;;;;;;4991208;28;20468;-46
2021/12/09 01:30:13;;;;;;;23.35;13.65;;;1.40;99.90;;;;;;5008706;28;20049;-47
2021/12/09 01:32:48;;;;;;;25.10;14.40;;;1.50;99.90;;;;;;5008698;28;20127;-61
2021/12/09 01:35:16;;;;;;;16.85;11.90;;;1.50;99.90;;;;;;4975762;28;20124;-47
2021/12/09 01:37:44;;;;;;;19.27;12.75;;;1.50;99.90;;;;;;4993448;28;20046;-61
2021/12/09 01:40:11;;;;;;;21.42;12.73;;;1.50;99.90;;;;;;5001927;28;20092;-61
2021/12/09 01:42:37;;;;;;;21.30;13.63;;;1.50;99.90;;;;;;4995411;28;20045;-61
2021/12/09 01:45:05;;;;;;;15.90;12.23;;;1.50;99.90;;;;;;5013101;28;20049;-61
2021/12/09 01:47:31;;;;;;;20.23;13.38;;;1.50;99.90;;;;;;4992965;28;20515;-61
2021/12/09 01:49:58;;;;;;;21.13;13.75;;;1.50;99.90;;;;;;5002524;28;20088;-62
2021/12/09 01:52:25;;;;;;;18.70;13.00;;;1.50;99.90;;;;;;4970074;28;20051;-61
2021/12/09 01:54:51;;;;;;;23.98;13.38;;;1.50;99.90;;;;;;4975790;28;20058;-61
2021/12/09 01:57:18;;;;;;;19.80;13.50;;;1.50;99.90;;;;;;4993440;28;20092;-61
2021/12/09 01:59:46;;;;;;;18.95;13.52;;;1.50;99.90;;;;;;4992744;28;20086;-62
2021/12/09 02:02:12;;;;;;;19.48;13.57;;;1.40;99.90;;;;;;4993169;28;20099;-48
2021/12/09 02:04:38;;;;;;;18.33;13.05;;;1.40;99.90;;;;;;4973671;28;20125;-62
2021/12/09 02:07:04;;;;;;;21.63;15.35;;;1.40;99.90;;;;;;5012759;28;20492;-47
2021/12/09 02:09:31;;;;;;;23.77;14.10;;;1.40;99.90;;;;;;5012362;28;20065;-46
2021/12/09 02:11:57;;;;;;;22.30;14.45;;;1.40;99.90;;;;;;4995146;28;20123;-61
2021/12/09 02:14:23;;;;;;;22.10;14.02;;;1.30;99.90;;;;;;4995013;28;20140;-48
2021/12/09 02:16:49;;;;;;;20.52;14.20;;;1.30;99.90;;;;;;5012096;28;20116;-46
2021/12/09 02:19:15;;;;;;;22.25;15.13;;;1.30;99.90;;;;;;4994892;28;20065;-46
2021/12/09 02:21:42;;;;;;;23.83;15.32;;;1.30;99.90;;;;;;4994421;28;20053;-47
2021/12/09 02:24:13;;;;;;;22.23;15.48;;;1.30;99.90;;;;;;4978642;28;20107;-62
2021/12/09 02:26:42;;;;;;;23.03;16.00;;;1.30;99.90;;;;;;4978474;28;20148;-47
2021/12/09 02:29:11;;;;;;;24.77;15.57;;;1.20;99.90;;;;;;4994638;28;20058;-46
2021/12/09 02:31:39;;;;;;;20.25;15.65;;;1.20;99.90;;;;;;5011985;28;20089;-47
2021/12/09 02:34:06;;;;;;;22.35;14.98;;;1.10;99.90;;;;;;5010843;28;20120;-48
2021/12/09 02:36:37;;;;;;;20.90;15.77;;;1.00;99.90;;;;;;5010819;28;20053;-46
2021/12/09 02:39:09;;;;;;;21.77;15.95;;;1.00;99.90;;;;;;4991202;28;20498;-45
2021/12/09 02:41:36;;;;;;;22.75;17.05;;;1.00;99.90;;;;;;4992612;28;20049;-45
2021/12/09 02:44:05;;;;;;;31.13;17.38;;;1.00;99.90;;;;;;4992832;28;20103;-46
2021/12/09 02:46:36;;;;;;;22.90;16.40;;;0.90;99.90;;;;;;5007645;28;20067;-46
2021/12/09 02:49:18;;;;;;;21.20;16.52;;;0.90;99.90;;;;;;4978334;28;20104;-61
2021/12/09 02:51:47;;;;;;;23.55;17.38;;;0.90;99.90;;;;;;5011713;28;20560;-61
2021/12/09 02:54:16;;;;;;;29.45;16.98;;;0.80;99.90;;;;;;4994299;28;20081;-61
2021/12/09 02:56:44;;;;;;;25.83;17.48;;;0.80;99.90;;;;;;4994241;28;20408;-61
2021/12/09 02:59:11;;;;;;;24.95;16.10;;;0.80;99.90;;;;;;4994046;28;20057;-61
2021/12/09 03:01:48;;;;;;;23.38;18.70;;;0.70;99.90;;;;;;5011357;28;20049;-61
2021/12/09 03:04:14;;;;;;;25.67;18.52;;;0.70;99.90;;;;;;4990397;28;20089;-62
2021/12/09 03:06:43;;;;;;;30.17;20.00;;;0.70;99.90;;;;;;4994303;28;20092;-46
2021/12/09 03:09:13;;;;;;;28.50;19.05;;;0.80;99.90;;;;;;4977078;28;20104;-45
2021/12/09 03:11:41;;;;;;;25.92;19.55;;;0.80;99.90;;;;;;4993279;28;20085;-47
2021/12/09 03:14:07;;;;;;;27.50;20.38;;;0.80;99.90;;;;;;4993940;28;20049;-49
2021/12/09 03:16:34;;;;;;;32.65;20.70;;;0.70;99.90;;;;;;4993644;28;20053;-46
2021/12/09 03:19:04;;;;;;;24.05;19.48;;;0.80;99.90;;;;;;4993859;28;20038;-48
2021/12/09 03:21:40;;;;;;;30.40;19.55;;;0.80;99.90;;;;;;4993414;28;20046;-46
2021/12/09 03:24:10;;;;;;;34.38;18.85;;;0.70;99.90;;;;;;4993091;28;20132;-48
2021/12/09 03:26:40;;;;;;;28.23;18.23;;;0.70;99.90;;;;;;4993306;28;20054;-47
2021/12/09 03:29:10;;;;;;;26.33;20.00;;;0.70;99.90;;;;;;5010796;28;20042;-46
2021/12/09 03:31:37;;;;;;;27.00;20.60;;;0.70;99.90;;;;;;4993265;28;20049;-46
2021/12/09 03:34:05;;;;;;;35.10;20.55;;;0.70;99.90;;;;;;4993291;28;20054;-46
2021/12/09 03:36:31;;;;;;;28.85;20.42;;;0.70;99.90;;;;;;4993101;28;20075;-47
2021/12/09 03:39:00;;;;;;;29.92;20.48;;;0.70;99.90;;;;;;4992886;28;20046;-45
2021/12/09 03:41:26;;;;;;;33.22;22.45;;;0.70;99.90;;;;;;5010615;28;20046;-46
2021/12/09 03:43:53;;;;;;;31.77;21.83;;;0.70;99.90;;;;;;5010666;28;20056;-48
2021/12/09 03:46:20;;;;;;;31.75;20.05;;;0.80;99.90;;;;;;4992442;28;20057;-45
2021/12/09 03:48:46;;;;;;;37.92;21.58;;;0.70;99.90;;;;;;4985416;28;20041;-45
2021/12/09 03:51:12;;;;;;;28.95;20.40;;;0.80;99.90;;;;;;5008539;28;20053;-46
2021/12/09 03:53:38;;;;;;;34.95;22.42;;;0.60;99.90;;;;;;5010253;28;20070;-47
2021/12/09 03:56:05;;;;;;;32.13;21.65;;;0.60;99.90;;;;;;4978755;28;20054;-46
2021/12/09 03:58:31;;;;;;;25.90;20.05;;;0.60;99.90;;;;;;4958147;28;20054;-47
2021/12/09 04:00:57;;;;;;;34.65;22.10;;;0.60;99.90;;;;;;5010523;28;20050;-48
2021/12/09 04:03:24;;;;;;;32.22;22.30;;;0.70;99.90;;;;;;5010647;28;20440;-48
2021/12/09 04:05:50;;;;;;;29.90;22.15;;;0.70;99.90;;;;;;4993191;28;20409;-46
2021/12/09 04:08:17;;;;;;;35.28;24.05;;;0.60;99.90;;;;;;4993154;28;20382;-46
2021/12/09 04:10:44;;;;;;;34.90;24.38;;;0.70;99.90;;;;;;4992707;28;20650;-47
2021/12/09 04:13:10;;;;;;;30.75;23.40;;;0.70;99.90;;;;;;5010434;28;20054;-46
2021/12/09 04:15:36;;;;;;;40.75;23.75;;;0.70;99.90;;;;;;4974593;28;20058;-46
2021/12/09 04:18:03;;;;;;;29.70;21.75;;;0.80;99.90;;;;;;4982140;28;20041;-47
2021/12/09 04:20:30;;;;;;;29.17;22.98;;;0.70;99.90;;;;;;5010466;28;20060;-48
2021/12/09 04:22:56;;;;;;;29.75;21.30;;;0.80;99.90;;;;;;4992985;28;20057;-61
2021/12/09 04:25:24;;;;;;;35.80;24.38;;;0.70;99.90;;;;;;4992769;28;20125;-61
2021/12/09 04:27:53;;;;;;;32.25;22.70;;;0.70;99.90;;;;;;5010882;28;20386;-61
2021/12/09 04:30:20;;;;;;;38.22;24.00;;;0.80;99.90;;;;;;4975937;28;20053;-61
2021/12/09 04:32:46;;;;;;;34.15;23.27;;;0.80;99.90;;;;;;4993031;28;20046;-61
2021/12/09 04:35:14;;;;;;;29.95;22.05;;;0.70;99.90;;;;;;5010353;28;20054;-61
2021/12/09 04:37:40;;;;;;;29.27;21.38;;;0.70;99.90;;;;;;5010066;28;20135;-61
2021/12/09 04:40:09;;;;;;;33.63;22.45;;;0.60;99.90;;;;;;5010452;28;20501;-61
2021/12/09 04:42:36;;;;;;;33.75;22.63;;;0.60;99.90;;;;;;4993008;28;20054;-61
2021/12/09 04:45:04;;;;;;;28.33;21.83;;;0.60;99.90;;;;;;5010455;28;20057;-61
2021/12/09 04:47:30;;;;;;;31.17;20.40;;;0.60;99.90;;;;;;4992872;28;20045;-61
2021/12/09 04:49:56;;;;;;;34.58;23.17;;;0.50;99.90;;;;;;5010576;28;20429;-61
2021/12/09 04:52:22;;;;;;;30.27;23.60;;;0.50;99.90;;;;;;4992924;28;20058;-61
2021/12/09 04:54:48;;;;;;;38.22;23.63;;;0.50;99.90;;;;;;5009516;28;20081;-61
2021/12/09 04:57:15;;;;;;;34.30;24.25;;;0.60;99.90;;;;;;4991831;28;20050;-61
2021/12/09 04:59:42;;;;;;;32.42;21.83;;;0.50;99.90;;;;;;5008525;28;20045;-61
2021/12/09 05:02:14;;;;;;;36.00;24.60;;;0.60;99.90;;;;;;4999995;28;20054;-61
2021/12/09 05:04:40;;;;;;;32.45;22.23;;;0.60;99.90;;;;;;4992407;28;20188;-61
2021/12/09 05:07:06;;;;;;;34.25;23.73;;;0.60;99.90;;;;;;5009105;28;20057;-60
2021/12/09 05:09:38;;;;;;;40.75;24.90;;;0.60;99.90;;;;;;4991820;28;20481;-61
2021/12/09 05:12:05;;;;;;;44.75;24.40;;;0.60;99.90;;;;;;4979311;28;20046;-61
2021/12/09 05:14:32;;;;;;;34.90;24.20;;;0.60;99.90;;;;;;4997241;28;20046;-61
2021/12/09 05:16:58;;;;;;;40.53;25.60;;;0.60;99.90;;;;;;4996360;28;20058;-61
2021/12/09 05:19:24;;;;;;;35.65;24.05;;;0.60;99.90;;;;;;5013549;28;20058;-61
2021/12/09 05:21:54;;;;;;;32.85;24.52;;;0.60;99.90;;;;;;5013766;28;20512;-61
2021/12/09 05:24:20;;;;;;;35.90;24.55;;;0.60;99.90;;;;;;5013460;28;20054;-61
2021/12/09 05:26:53;;;;;;;40.63;24.58;;;0.70;99.90;;;;;;4979899;28;20177;-61
2021/12/09 05:29:22;;;;;;;36.15;24.63;;;0.70;99.90;;;;;;4979497;28;20048;-61
2021/12/09 05:34:34;;;;;;;36.90;25.13;;;0.60;99.90;;;;;;4998353;28;20125;-61
2021/12/09 05:37:01;;;;;;;36.13;24.52;;;0.60;99.90;;;;;;4991284;28;20100;-61
2021/12/09 05:39:27;;;;;;;33.45;25.05;;;0.60;99.90;;;;;;4968173;28;20050;-61
2021/12/09 05:41:54;;;;;;;36.35;23.73;;;0.50;99.90;;;;;;4975989;28;20053;-61
2021/12/09 05:44:20;;;;;;;31.58;23.70;;;0.60;99.90;;;;;;4963660;28;20045;-61
2021/12/09 05:46:47;;;;;;;33.10;24.08;;;0.60;99.90;;;;;;4979004;28;20099;-61
2021/12/09 05:49:15;;;;;;;38.38;24.70;;;0.60;99.90;;;;;;4997907;28;20050;-61
2021/12/09 05:51:43;;;;;;;40.20;26.33;;;0.60;99.90;;;;;;4993266;28;20058;-61
2021/12/09 05:54:10;;;;;;;36.72;24.90;;;0.60;99.90;;;;;;4943033;28;20050;-48
2021/12/09 05:56:36;;;;;;;39.20;25.00;;;0.60;99.90;;;;;;4992021;28;20061;-47
2021/12/09 05:59:04;;;;;;;33.08;24.33;;;0.50;99.90;;;;;;4993282;28;20132;-61
2021/12/09 06:01:30;;;;;;;41.08;24.42;;;0.50;99.90;;;;;;4986323;28;20053;-61
2021/12/09 06:03:56;;;;;;;36.78;24.23;;;0.50;99.90;;;;;;4962542;28;20045;-61
2021/12/09 06:06:22;;;;;;;40.03;26.27;;;0.50;99.90;;;;;;5012039;28;20098;-61
2021/12/09 06:08:49;;;;;;;37.40;25.65;;;0.50;99.90;;;;;;5012658;28;20061;-47
2021/12/09 06:11:16;;;;;;;42.25;24.05;;;0.50;99.90;;;;;;5012132;28;20046;-44
2021/12/09 06:13:42;;;;;;;35.88;23.70;;;0.40;99.90;;;;;;4994739;28;20061;-47
2021/12/09 06:16:09;;;;;;;35.67;24.58;;;0.40;99.90;;;;;;4994043;28;20115;-49
2021/12/09 06:18:35;;;;;;;38.92;24.50;;;0.40;99.90;;;;;;4994253;28;20505;-50
2021/12/09 06:21:02;;;;;;;37.50;25.45;;;0.40;99.90;;;;;;4993881;28;20058;-60
2021/12/09 06:23:28;;;;;;;36.97;24.88;;;0.40;99.90;;;;;;4993026;28;20053;-60
2021/12/09 06:25:55;;;;;;;43.70;26.30;;;0.40;99.90;;;;;;4992657;28;20045;-61
2021/12/09 06:28:21;;;;;;;39.03;25.13;;;0.40;99.90;;;;;;4969044;28;20050;-60
2021/12/09 06:30:47;;;;;;;36.33;24.90;;;0.40;99.90;;;;;;4977477;28;20050;-49
2021/12/09 06:33:13;;;;;;;41.88;26.85;;;0.40;99.90;;;;;;5011813;28;20404;-46
2021/12/09 06:35:40;;;;;;;37.65;25.58;;;0.40;99.90;;;;;;4993795;28;20041;-49
2021/12/09 06:38:12;;;;;;;40.13;25.58;;;0.40;99.90;;;;;;4994289;28;20041;-50
2021/12/09 06:40:38;;;;;;;37.15;25.80;;;0.40;99.90;;;;;;5011857;28;20132;-51
2021/12/09 06:43:04;;;;;;;37.78;26.52;;;0.30;99.90;;;;;;4994460;28;20393;-48
2021/12/09 06:45:31;;;;;;;41.90;26.15;;;0.30;99.90;;;;;;4994253;28;20053;-47
2021/12/09 06:47:57;;;;;;;38.30;25.05;;;0.30;99.90;;;;;;5011413;28;20501;-47
2021/12/09 06:50:23;;;;;;;43.45;26.52;;;0.30;99.90;;;;;;4994303;28;20104;-60
2021/12/09 06:52:50;;;;;;;36.50;25.45;;;0.30;99.90;;;;;;5011062;28;20081;-49
2021/12/09 06:55:17;;;;;;;46.10;25.38;;;0.20;99.90;;;;;;5011497;28;20061;-47
2021/12/09 06:57:45;;;;;;;46.00;26.33;;;0.20;99.90;;;;;;4993981;28;20134;-47
2021/12/09 07:00:24;;;;;;;38.20;23.65;;;0.20;99.90;;;;;;4975271;28;20057;-59
2021/12/09 07:02:52;;;;;;;40.00;25.48;;;0.20;99.90;;;;;;5000934;28;20049;-61
2021/12/09 07:05:20;;;;;;;45.25;27.00;;;0.20;99.90;;;;;;5011595;28;20120;-60
2021/12/09 07:07:46;;;;;;;40.83;26.23;;;0.20;99.90;;;;;;4993894;28;20481;-59
2021/12/09 07:10:14;;;;;;;43.95;25.77;;;0.20;99.90;;;;;;4976915;28;20046;-61
2021/12/09 07:12:41;;;;;;;36.95;24.92;;;0.20;99.90;;;;;;5011486;28;20045;-61
2021/12/09 07:15:11;;;;;;;35.17;24.25;;;0.10;99.90;;;;;;5011429;28;20092;-47
2021/12/09 07:17:37;;;;;;;34.78;23.73;;;0.10;99.90;;;;;;4976758;28;20064;-61
2021/12/09 07:20:07;;;;;;;39.55;23.70;;;0.00;99.90;;;;;;4990322;28;20043;-61
2021/12/09 07:22:33;;;;;;;40.50;24.23;;;0.00;99.90;;;;;;4991934;28;20058;-61
2021/12/09 07:25:00;;;;;;;40.20;23.08;;;0.00;99.90;;;;;;4993230;28;20493;-61
2021/12/09 07:27:26;;;;;;;37.20;23.00;;;0.00;99.90;;;;;;4993218;28;20057;-49
2021/12/09 07:29:52;;;;;;;44.78;25.30;;;0.00;99.90;;;;;;5010955;28;20120;-64
2021/12/09 07:32:18;;;;;;;41.03;26.02;;;0.00;99.90;;;;;;4992651;28;20112;-61
2021/12/09 07:34:44;;;;;;;39.97;27.25;;;0.10;99.90;;;;;;5010398;28;20053;-60
2021/12/09 07:37:10;;;;;;;48.20;27.25;;;0.10;99.90;;;;;;5010909;28;20042;-61
2021/12/09 07:39:37;;;;;;;45.22;27.45;;;0.10;99.90;;;;;;4977901;28;20053;-61
2021/12/09 07:42:04;;;;;;;39.60;27.45;;;0.20;99.90;;;;;;5010738;28;20042;-49
2021/12/09 07:44:32;;;;;;;42.60;26.92;;;0.20;99.90;;;;;;4993129;28;20045;-60
2021/12/09 07:46:59;;;;;;;39.28;27.38;;;0.20;99.90;;;;;;5007532;28;20049;-60
2021/12/09 07:49:26;;;;;;;44.75;27.75;;;0.20;99.90;;;;;;5001354;28;20089;-60
2021/12/09 07:51:53;;;;;;;43.55;27.20;;;0.20;99.90;;;;;;4993031;28;20137;-60
2021/12/09 07:54:20;;;;;;;45.47;26.58;;;0.20;99.90;;;;;;4977184;28;20088;-52
2021/12/09 07:56:46;;;;;;;43.60;24.85;;;0.20;99.90;;;;;;4999748;28;20057;-60
2021/12/09 07:59:12;;;;;;;38.55;26.08;;;0.20;99.90;;;;;;5010842;28;20053;-62
2021/12/09 08:01:40;;;;;;;38.17;24.70;;;0.20;99.90;;;;;;4975768;28;20501;-60
2021/12/09 08:04:07;;;;;;;39.63;24.50;;;0.30;99.90;;;;;;5010048;28;20087;-58
2021/12/09 08:06:35;;;;;;;39.88;23.60;;;0.30;99.90;;;;;;4993169;28;20125;-48
2021/12/09 08:09:03;;;;;;;35.28;24.65;;;0.20;99.90;;;;;;5010427;28;20052;-52
2021/12/09 08:11:30;;;;;;;44.10;26.27;;;0.30;99.90;;;;;;5006387;28;20052;-60
2021/12/09 08:13:56;;;;;;;41.05;25.55;;;0.30;99.90;;;;;;4985661;28;20089;-61
2021/12/09 08:16:23;;;;;;;41.38;26.60;;;0.40;99.90;;;;;;4998308;28;20158;-47
2021/12/09 08:18:56;;;;;;;41.35;24.73;;;0.50;99.90;;;;;;4990562;28;20050;-51
2021/12/09 08:21:24;;;;;;;36.53;24.90;;;0.70;99.90;;;;;;4973425;28;20599;-61
2021/12/09 08:23:52;;;;;;;32.85;24.48;;;0.70;99.90;;;;;;4973220;28;20043;-61
2021/12/09 08:26:19;;;;;;;32.50;21.85;;;0.80;99.90;;;;;;4990461;28;20100;-61
2021/12/09 08:28:45;;;;;;;33.17;21.70;;;0.90;99.90;;;;;;4990304;28;20072;-63
2021/12/09 08:31:15;;;;;;;36.50;21.80;;;1.10;99.90;;;;;;4991472;28;20058;-62
2021/12/09 08:33:41;;;;;;;26.73;18.70;;;1.40;99.90;;;;;;4988225;28;20073;-63
2021/12/09 08:36:07;;;;;;;26.40;17.48;;;1.60;99.90;;;;;;4998763;28;20099;-63
2021/12/09 08:38:35;;;;;;;23.60;15.70;;;1.80;99.90;;;;;;4945424;28;20795;-63
2021/12/09 08:41:02;;;;;;;21.42;15.05;;;2.00;99.90;;;;;;5007406;28;20042;-63
2021/12/09 08:43:29;;;;;;;16.80;12.05;;;2.10;99.90;;;;;;4992971;28;20050;-63
2021/12/09 08:45:57;;;;;;;22.15;14.02;;;2.20;99.90;;;;;;4979177;28;20423;-63
2021/12/09 08:48:26;;;;;;;17.33;12.63;;;2.20;99.90;;;;;;5013240;28;20057;-63
2021/12/09 08:50:53;;;;;;;19.65;11.60;;;2.30;99.90;;;;;;5013761;28;20073;-63
2021/12/09 08:53:22;;;;;;;16.77;11.45;;;2.70;99.90;;;;;;5013833;28;20103;-62
2021/12/09 08:55:49;;;;;;;15.50;11.80;;;2.70;99.90;;;;;;5014257;28;20124;-63
2021/12/09 08:58:15;;;;;;;21.67;11.13;;;2.80;99.90;;;;;;4994956;28;20088;-63
2021/12/09 09:00:43;;;;;;;17.65;11.23;;;2.80;99.90;;;;;;5013585;28;20134;-63
2021/12/09 09:03:09;;;;;;;14.98;11.02;;;2.90;99.90;;;;;;5013713;28;20046;-63
2021/12/09 09:05:38;;;;;;;16.77;10.00;;;2.90;99.90;;;;;;4979925;28;20053;-63
2021/12/09 09:08:05;;;;;;;16.02;10.38;;;3.00;99.90;;;;;;5009742;28;20049;-63
2021/12/09 09:10:34;;;;;;;16.40;10.10;;;3.00;99.90;;;;;;5012468;28;20132;-63
2021/12/09 09:13:00;;;;;;;16.40;10.45;;;3.00;99.90;;;;;;5012574;28;20060;-63
2021/12/09 09:15:28;;;;;;;17.73;10.45;;;2.90;99.90;;;;;;5013468;28;20077;-63
2021/12/09 09:17:54;;;;;;;14.65;9.90;;;2.90;99.90;;;;;;4962771;28;20062;-63
2021/12/09 09:20:25;;;;;;;20.65;10.20;;;2.80;99.90;;;;;;4995657;28;20058;-63
2021/12/09 09:22:51;;;;;;;20.42;10.82;;;2.80;99.90;;;;;;4963211;28;20052;-63
2021/12/09 09:25:22;;;;;;;13.95;10.68;;;2.80;99.90;;;;;;4995399;28;20069;-48
2021/12/09 09:27:49;;;;;;;17.65;9.82;;;2.90;99.90;;;;;;5012826;28;20529;-48
2021/12/09 09:30:18;;;;;;;13.50;8.95;;;3.00;99.90;;;;;;4995475;28;20141;-51
2021/12/09 09:32:49;;;;;;;14.63;9.13;;;3.00;99.90;;;;;;4995239;28;20492;-63
2021/12/09 09:35:18;;;;;;;14.60;9.27;;;3.10;99.90;;;;;;5012981;28;20136;-63
2021/12/09 09:37:45;;;;;;;13.77;8.98;;;3.20;99.90;;;;;;4994949;28;20050;-63
2021/12/09 09:40:14;;;;;;;15.48;9.82;;;3.20;99.90;;;;;;4994714;28;20093;-63
2021/12/09 09:45:16;;;;;;;13.85;9.18;;;3.20;99.90;;;;;;4995357;28;20134;-63
2021/12/09 09:47:42;;;;;;;15.75;8.90;;;3.10;99.90;;;;;;5012863;28;20415;-63
2021/12/09 09:50:11;;;;;;;16.80;10.35;;;3.10;99.90;;;;;;5012856;28;20050;-63
2021/12/09 09:52:37;;;;;;;13.63;8.85;;;3.20;99.90;;;;;;5012972;28;20077;-63
2021/12/09 09:55:08;;;;;;;11.13;9.23;;;3.40;99.90;;;;;;4994171;28;20046;-63
2021/12/09 09:57:35;;;;;;;14.70;9.02;;;3.60;99.90;;;;;;4963335;28;20481;-63
2021/12/09 10:00:05;;;;;;;11.85;8.07;;;3.70;99.90;;;;;;5012282;28;20058;-53
2021/12/09 10:02:36;;;;;;;17.75;9.27;;;3.70;99.90;;;;;;5012531;28;20069;-51
2021/12/09 10:05:05;;;;;;;15.18;8.30;;;3.70;99.90;;;;;;5012240;28;20061;-49
2021/12/09 10:07:33;;;;;;;16.90;9.07;;;3.70;99.90;;;;;;4978871;28;20060;-50
2021/12/09 10:10:00;;;;;;;15.18;9.52;;;3.70;99.90;;;;;;5012609;28;20365;-49
2021/12/09 10:12:26;;;;;;;14.57;8.57;;;3.80;99.90;;;;;;4995335;28;20492;-50
2021/12/09 10:14:54;;;;;;;16.48;8.65;;;4.00;99.90;;;;;;4994458;28;20116;-63
2021/12/09 10:17:26;;;;;;;13.27;7.45;;;4.20;99.90;;;;;;4990760;28;20060;-53
2021/12/09 10:19:58;;;;;;;15.07;7.25;;;4.50;99.90;;;;;;4992221;28;20050;-63
2021/12/09 10:22:35;;;;;;;13.05;7.60;;;4.90;99.90;;;;;;4993000;28;20089;-63
2021/12/09 10:25:15;;;;;;;12.10;6.97;;;4.80;99.90;;;;;;4991074;28;20046;-63
2021/12/09 10:27:45;;;;;;;15.07;7.50;;;4.80;99.90;;;;;;4992456;28;20042;-52
2021/12/09 10:30:14;;;;;;;13.50;7.63;;;4.70;99.90;;;;;;4990914;28;20493;-52
2021/12/09 10:32:41;;;;;;;19.30;8.50;;;4.70;99.90;;;;;;4992060;28;20050;-52
2021/12/09 10:35:17;;;;;;;14.68;7.50;;;4.50;99.90;;;;;;4992302;28;20086;-52
2021/12/09 10:37:48;;;;;;;13.52;7.40;;;4.30;99.90;;;;;;4974509;28;20038;-63
2021/12/09 10:40:21;;;;;;;15.82;8.23;;;4.00;99.90;;;;;;4990635;28;20058;-47
2021/12/09 10:42:53;;;;;;;13.88;7.65;;;3.90;99.90;;;;;;4992023;28;20057;-50
2021/12/09 10:45:21;;;;;;;;;;;3.70;99.90;;;;;;4974733;28;20160;-63
2021/12/09 10:48:00;;;;;;;16.73;8.90;;;3.60;99.90;;;;;;4990507;28;19918;-63
2021/12/09 10:51:06;;;;;;;13.48;8.93;;;3.50;99.90;;;;;;4991929;28;20050;-63
2021/12/09 10:53:51;;;;;;;15.48;8.88;;;3.50;99.90;;;;;;4992266;28;20054;-63
2021/12/09 10:56:30;;;;;;;19.20;9.88;;;3.40;99.90;;;;;;4991671;28;20137;-63
2021/12/09 10:58:57;;;;;;;18.48;11.10;;;3.40;99.90;;;;;;4990424;28;20057;-63
2021/12/09 11:01:24;;;;;;;17.15;9.82;;;3.40;99.90;;;;;;4974577;28;20129;-63
2021/12/09 11:04:00;;;;;;;16.33;10.23;;;3.40;99.90;;;;;;4992149;28;20390;-63
2021/12/09 11:06:34;;;;;;;21.45;11.90;;;3.40;99.90;;;;;;4991776;28;20450;-63
2021/12/09 11:09:07;;;;;;;19.98;11.23;;;3.50;99.90;;;;;;4991371;28;20104;-63
2021/12/09 11:11:40;;;;;;;20.02;11.52;;;3.50;99.90;;;;;;4990441;28;20413;-63
2021/12/09 11:14:12;;;;;;;21.75;12.68;;;3.50;99.90;;;;;;4991352;28;20051;-63
2021/12/09 11:16:56;;;;;;;22.40;10.57;;;3.60;99.90;;;;;;4990133;28;20042;-63
2021/12/09 11:19:48;;;;;;;16.83;10.70;;;3.50;99.90;;;;;;4974068;28;20409;-63
2021/12/09 11:22:17;;;;;;;15.05;10.30;;;3.60;99.90;;;;;;4973422;28;20069;-63
2021/12/09 11:24:47;;;;;;;16.70;10.50;;;3.60;99.90;;;;;;4990219;28;20508;-63
2021/12/09 11:27:18;;;;;;;17.60;10.73;;;3.60;99.90;;;;;;4990166;28;20056;-63
2021/12/09 11:29:49;;;;;;;22.80;12.13;;;3.60;99.90;;;;;;4990106;28;20512;-63
2021/12/09 11:35:15;;;;;;;25.55;11.85;;;3.60;99.90;;;;;;4991095;28;20058;-62
2021/12/09 11:37:50;;;;;;;;;;;3.60;99.90;;;;;;4973801;28;20046;-63
2021/12/09 11:40:34;;;;;;;18.30;11.40;;;3.60;99.90;;;;;;4974613;28;19922;-52
2021/12/09 11:43:02;;;;;;;23.73;12.05;;;3.60;99.90;;;;;;4991281;28;20145;-63
2021/12/09 11:45:32;;;;;;;18.60;11.40;;;3.60;99.90;;;;;;4989834;28;20050;-63
2021/12/09 11:48:00;;;;;;;19.58;12.35;;;3.50;99.90;;;;;;4992223;28;20185;-63
2021/12/09 11:50:30;;;;;;;17.77;12.35;;;3.50;99.90;;;;;;4990893;28;20061;-63
2021/12/09 11:52:58;;;;;;;19.50;12.40;;;3.50;99.90;;;;;;4991316;28;20137;-62
2021/12/09 11:55:33;;;;;;;16.70;11.70;;;3.50;99.90;;;;;;4989720;28;20046;-62
2021/12/09 11:58:05;;;;;;;20.13;13.57;;;3.50;99.90;;;;;;4973196;28;20057;-63
2021/12/09 12:07:13;;;;;;;23.88;15.13;;;3.50;99.90;;;;;;4973511;28;20077;-48
2021/12/09 12:12:56;;;;;;;25.05;16.40;;;3.50;99.90;;;;;;4989866;28;20057;-47
2021/12/09 12:21:39;;;;;;;20.73;16.52;;;3.50;99.90;;;;;;4996740;28;20090;-47
2021/12/09 12:23:59;;;;;;;25.95;15.35;;;3.50;99.90;;;;;;4953284;28;20517;-49
2021/12/09 12:29:45;;;;;;;29.63;16.63;;;3.60;99.90;;;;;;4982177;28;20050;-48
2021/12/09 12:40:36;;;;;;;28.20;16.85;;;3.60;99.90;;;;;;5005995;28;20054;-51
2021/12/09 12:43:08;;;;;;;23.30;16.02;;;3.60;99.90;;;;;;4959051;28;20034;-50
2021/12/09 12:46:13;;;;;;;;;;;3.60;99.90;;;;;;4966080;28;20056;-54
2021/12/09 12:51:10;;;;;;;28.77;17.35;;;3.60;99.90;;;;;;5003044;28;20437;-53
2021/12/09 12:53:42;;;;;;;28.30;17.63;;;3.60;99.90;;;;;;4974145;28;20058;-53
2021/12/09 12:56:26;;;;;;;28.95;18.02;;;3.60;99.90;;;;;;4995332;28;20081;-51
2021/12/09 12:59:09;;;;;;;27.65;17.88;;;3.60;99.90;;;;;;4993990;28;20054;-50
2021/12/09 13:01:42;;;;;;;31.10;18.17;;;3.60;99.90;;;;;;4989550;28;20125;-50
2021/12/09 13:04:34;;;;;;;27.80;19.08;;;3.60;99.90;;;;;;4979567;28;20116;-49
2021/12/09 13:07:21;;;;;;;25.98;16.83;;;3.60;99.90;;;;;;4997435;28;20113;-48
2021/12/09 13:10:04;;;;;;;31.15;20.20;;;3.60;99.90;;;;;;4995027;28;20093;-50
2021/12/09 13:12:41;;;;;;;30.13;19.75;;;3.70;99.90;;;;;;4977704;28;20054;-48
2021/12/09 13:15:25;;;;;;;32.30;20.40;;;3.60;99.90;;;;;;5008365;28;20096;-49
2021/12/09 13:18:07;;;;;;;30.85;18.98;;;3.70;99.90;;;;;;4981747;28;20133;-62
2021/12/09 13:20:37;;;;;;;33.25;19.38;;;3.70;99.90;;;;;;4982990;28;20533;-62
2021/12/09 13:23:27;;;;;;;33.55;20.08;;;3.80;99.90;;;;;;5001110;28;20050;-63
2021/12/09 13:26:24;;;;;;;32.08;19.42;;;3.80;99.90;;;;;;4993518;28;20042;-62